sensor_id;sensor_type;location;lat;lon;timestamp;pressure;altitude;pressure_sealevel;temperature;humidity
22649;BME280;11491;41.942;24.220;2023-02-15T00:01:56;90770.38;;;-4.66;72.99
22649;BME280;11491;41.942;24.220;2023-02-15T00:04:24;90773.44;;;-4.69;72.87
22649;BME280;11491;41.942;24.220;2023-02-15T00:07:12;90775.03;;;-4.68;72.59
22649;BME280;11491;41.942;24.220;2023-02-15T00:09:39;90772.50;;;-4.63;73.64
22649;BME280;11491;41.942;24.220;2023-02-15T00:12:08;90776.47;;;-4.60;72.54
22649;BME280;11491;41.942;24.220;2023-02-15T00:14:35;90781.59;;;-4.65;72.75
22649;BME280;11491;41.942;24.220;2023-02-15T00:17:02;90767.56;;;-4.76;73.12
22649;BME280;11491;41.942;24.220;2023-02-15T00:19:29;90762.72;;;-4.84;73.66
22649;BME280;11491;41.942;24.220;2023-02-15T00:21:56;90777.13;;;-4.93;73.63
22649;BME280;11491;41.942;24.220;2023-02-15T00:24:23;90789.59;;;-4.95;73.94
22649;BME280;11491;41.942;24.220;2023-02-15T00:26:49;90785.63;;;-4.86;73.87
22649;BME280;11491;41.942;24.220;2023-02-15T00:29:18;90790.94;;;-4.81;73.56
22649;BME280;11491;41.942;24.220;2023-02-15T00:31:45;90789.13;;;-4.92;73.87
22649;BME280;11491;41.942;24.220;2023-02-15T00:34:14;90778.25;;;-4.89;72.64
22649;BME280;11491;41.942;24.220;2023-02-15T00:36:42;90781.19;;;-4.98;73.15
22649;BME280;11491;41.942;24.220;2023-02-15T00:39:09;90784.16;;;-5.06;72.96
22649;BME280;11491;41.942;24.220;2023-02-15T00:41:36;90771.59;;;-5.21;73.48
22649;BME280;11491;41.942;24.220;2023-02-15T00:44:03;90779.06;;;-5.12;73.93
22649;BME280;11491;41.942;24.220;2023-02-15T00:46:32;90775.78;;;-5.08;73.36
22649;BME280;11491;41.942;24.220;2023-02-15T00:48:58;90777.91;;;-5.05;72.52
22649;BME280;11491;41.942;24.220;2023-02-15T00:51:26;90776.13;;;-5.04;73.38
22649;BME280;11491;41.942;24.220;2023-02-15T00:53:53;90775.31;;;-5.05;73.97
22649;BME280;11491;41.942;24.220;2023-02-15T00:56:20;90759.66;;;-5.05;74.64
22649;BME280;11491;41.942;24.220;2023-02-15T00:58:47;90777.25;;;-5.00;73.45
22649;BME280;11491;41.942;24.220;2023-02-15T01:01:17;90775.88;;;-5.14;73.17
22649;BME280;11491;41.942;24.220;2023-02-15T01:03:45;90782.03;;;-5.21;73.90
22649;BME280;11491;41.942;24.220;2023-02-15T01:06:13;90788.13;;;-5.03;73.13
22649;BME280;11491;41.942;24.220;2023-02-15T01:08:41;90774.19;;;-5.09;72.97
22649;BME280;11491;41.942;24.220;2023-02-15T01:11:10;90775.09;;;-5.15;73.51
22649;BME280;11491;41.942;24.220;2023-02-15T01:13:38;90775.97;;;-4.98;72.25
22649;BME280;11491;41.942;24.220;2023-02-15T01:16:04;90776.25;;;-5.11;72.07
22649;BME280;11491;41.942;24.220;2023-02-15T01:18:31;90768.53;;;-5.06;72.27
22649;BME280;11491;41.942;24.220;2023-02-15T01:21:00;90773.84;;;-5.12;72.10
22649;BME280;11491;41.942;24.220;2023-02-15T01:23:34;90771.47;;;-5.14;72.39
22649;BME280;11491;41.942;24.220;2023-02-15T01:26:02;90762.63;;;-5.13;72.59
22649;BME280;11491;41.942;24.220;2023-02-15T01:28:29;90755.91;;;-4.97;72.24
22649;BME280;11491;41.942;24.220;2023-02-15T01:30:55;90752.75;;;-5.11;72.36
22649;BME280;11491;41.942;24.220;2023-02-15T01:33:22;90756.28;;;-5.17;72.14
22649;BME280;11491;41.942;24.220;2023-02-15T01:35:56;90754.47;;;-5.28;72.19
22649;BME280;11491;41.942;24.220;2023-02-15T01:38:24;90760.03;;;-5.25;72.44
22649;BME280;11491;41.942;24.220;2023-02-15T01:40:51;90753.00;;;-5.24;71.80
22649;BME280;11491;41.942;24.220;2023-02-15T01:43:18;90757.44;;;-5.36;72.77
22649;BME280;11491;41.942;24.220;2023-02-15T01:45:46;90752.22;;;-5.36;73.88
22649;BME280;11491;41.942;24.220;2023-02-15T01:48:19;90752.66;;;-5.39;73.16
22649;BME280;11491;41.942;24.220;2023-02-15T01:50:49;90753.81;;;-5.35;72.51
22649;BME280;11491;41.942;24.220;2023-02-15T01:53:18;90750.41;;;-5.36;72.09
22649;BME280;11491;41.942;24.220;2023-02-15T01:55:53;90749.25;;;-5.75;73.53
22649;BME280;11491;41.942;24.220;2023-02-15T01:58:21;90755.47;;;-6.00;74.93
22649;BME280;11491;41.942;24.220;2023-02-15T02:00:49;90754.44;;;-5.99;74.77
22649;BME280;11491;41.942;24.220;2023-02-15T02:03:16;90748.47;;;-5.76;74.78
22649;BME280;11491;41.942;24.220;2023-02-15T02:05:43;90755.72;;;-5.66;74.50
22649;BME280;11491;41.942;24.220;2023-02-15T02:08:10;90752.22;;;-5.60;73.23
22649;BME280;11491;41.942;24.220;2023-02-15T02:10:37;90759.69;;;-5.75;73.99
22649;BME280;11491;41.942;24.220;2023-02-15T02:13:06;90766.16;;;-5.54;73.59
22649;BME280;11491;41.942;24.220;2023-02-15T02:15:39;90756.03;;;-5.74;73.71
22649;BME280;11491;41.942;24.220;2023-02-15T02:18:19;90766.50;;;-5.51;72.68
22649;BME280;11491;41.942;24.220;2023-02-15T02:24:06;90776.47;;;-5.48;73.09
22649;BME280;11491;41.942;24.220;2023-02-15T02:27:04;90777.25;;;-5.47;72.97
22649;BME280;11491;41.942;24.220;2023-02-15T02:35:42;90788.00;;;-5.67;74.42
22649;BME280;11491;41.942;24.220;2023-02-15T02:38:16;90790.50;;;-5.72;73.64
22649;BME280;11491;41.942;24.220;2023-02-15T02:40:52;90792.75;;;-5.64;73.08
22649;BME280;11491;41.942;24.220;2023-02-15T02:43:28;90785.50;;;-5.62;72.76
22649;BME280;11491;41.942;24.220;2023-02-15T02:45:58;90784.94;;;-5.76;73.31
22649;BME280;11491;41.942;24.220;2023-02-15T02:48:30;90786.19;;;-5.78;73.35
22649;BME280;11491;41.942;24.220;2023-02-15T02:51:00;90781.41;;;-5.81;74.32
22649;BME280;11491;41.942;24.220;2023-02-15T02:53:29;90788.47;;;-5.70;73.47
22649;BME280;11491;41.942;24.220;2023-02-15T02:56:01;90780.63;;;-5.70;73.76
22649;BME280;11491;41.942;24.220;2023-02-15T02:58:34;90779.84;;;-5.82;73.12
22649;BME280;11491;41.942;24.220;2023-02-15T03:01:06;90786.88;;;-5.71;73.19
22649;BME280;11491;41.942;24.220;2023-02-15T03:03:38;90793.66;;;-5.70;72.55
22649;BME280;11491;41.942;24.220;2023-02-15T03:06:10;90787.06;;;-5.85;73.10
22649;BME280;11491;41.942;24.220;2023-02-15T03:08:42;90798.88;;;-5.70;72.15
22649;BME280;11491;41.942;24.220;2023-02-15T03:11:11;90788.44;;;-5.94;72.70
22649;BME280;11491;41.942;24.220;2023-02-15T03:13:39;90798.84;;;-5.94;73.70
22649;BME280;11491;41.942;24.220;2023-02-15T03:16:06;90799.19;;;-6.02;74.09
22649;BME280;11491;41.942;24.220;2023-02-15T03:18:55;90793.38;;;-6.16;74.34
22649;BME280;11491;41.942;24.220;2023-02-15T03:21:31;90791.81;;;-6.05;73.69
22649;BME280;11491;41.942;24.220;2023-02-15T03:24:03;90784.47;;;-5.96;72.54
22649;BME280;11491;41.942;24.220;2023-02-15T03:26:32;90789.91;;;-5.98;72.77
22649;BME280;11491;41.942;24.220;2023-02-15T03:29:00;90786.09;;;-6.25;73.88
22649;BME280;11491;41.942;24.220;2023-02-15T03:31:31;90795.88;;;-6.09;73.58
22649;BME280;11491;41.942;24.220;2023-02-15T03:34:03;90787.41;;;-6.35;73.71
22649;BME280;11491;41.942;24.220;2023-02-15T03:36:38;90798.16;;;-6.43;74.15
22649;BME280;11491;41.942;24.220;2023-02-15T03:39:12;90797.38;;;-6.32;75.25
22649;BME280;11491;41.942;24.220;2023-02-15T03:41:45;90757.41;;;-6.37;74.32
22649;BME280;11491;41.942;24.220;2023-02-15T03:44:16;90791.56;;;-6.15;74.14
22649;BME280;11491;41.942;24.220;2023-02-15T03:46:48;90799.50;;;-6.10;74.08
22649;BME280;11491;41.942;24.220;2023-02-15T03:49:21;90806.03;;;-6.19;73.75
22649;BME280;11491;41.942;24.220;2023-02-15T03:51:53;90797.03;;;-6.35;74.78
22649;BME280;11491;41.942;24.220;2023-02-15T03:54:24;90801.28;;;-6.22;74.61
22649;BME280;11491;41.942;24.220;2023-02-15T03:57:15;90789.53;;;-6.13;73.97
22649;BME280;11491;41.942;24.220;2023-02-15T04:00:00;90803.31;;;-6.24;73.55
22649;BME280;11491;41.942;24.220;2023-02-15T04:02:52;90804.91;;;-6.23;74.52
22649;BME280;11491;41.942;24.220;2023-02-15T04:05:23;90806.03;;;-6.19;74.71
22649;BME280;11491;41.942;24.220;2023-02-15T04:07:51;90803.56;;;-6.14;74.70
22649;BME280;11491;41.942;24.220;2023-02-15T04:10:17;90798.94;;;-6.12;74.23
22649;BME280;11491;41.942;24.220;2023-02-15T04:12:58;90804.97;;;-6.00;73.51
22649;BME280;11491;41.942;24.220;2023-02-15T04:15:25;90798.06;;;-6.06;72.76
22649;BME280;11491;41.942;24.220;2023-02-15T04:18:09;90803.47;;;-6.08;73.15
22649;BME280;11491;41.942;24.220;2023-02-15T04:20:36;90819.19;;;-6.14;73.02
22649;BME280;11491;41.942;24.220;2023-02-15T04:23:25;90814.47;;;-6.05;72.99
22649;BME280;11491;41.942;24.220;2023-02-15T04:26:12;90803.47;;;-6.08;73.23
22649;BME280;11491;41.942;24.220;2023-02-15T04:28:42;90811.88;;;-6.05;73.15
22649;BME280;11491;41.942;24.220;2023-02-15T04:31:09;90813.53;;;-6.11;74.34
22649;BME280;11491;41.942;24.220;2023-02-15T04:33:36;90809.47;;;-6.07;74.50
22649;BME280;11491;41.942;24.220;2023-02-15T04:36:05;90813.00;;;-6.01;73.19
22649;BME280;11491;41.942;24.220;2023-02-15T04:38:33;90815.56;;;-6.13;73.12
22649;BME280;11491;41.942;24.220;2023-02-15T04:41:00;90818.47;;;-6.21;73.47
22649;BME280;11491;41.942;24.220;2023-02-15T04:43:26;90821.91;;;-6.09;72.94
22649;BME280;11491;41.942;24.220;2023-02-15T04:45:53;90816.28;;;-6.06;73.73
22649;BME280;11491;41.942;24.220;2023-02-15T04:48:20;90827.22;;;-6.16;73.40
22649;BME280;11491;41.942;24.220;2023-02-15T04:50:47;90826.00;;;-6.13;73.19
22649;BME280;11491;41.942;24.220;2023-02-15T04:53:13;90831.91;;;-6.06;72.14
22649;BME280;11491;41.942;24.220;2023-02-15T04:55:44;90834.34;;;-6.11;72.71
22649;BME280;11491;41.942;24.220;2023-02-15T04:58:10;90825.81;;;-6.00;71.99
22649;BME280;11491;41.942;24.220;2023-02-15T05:00:37;90827.00;;;-6.14;73.02
22649;BME280;11491;41.942;24.220;2023-02-15T05:03:04;90827.31;;;-6.22;73.87
22649;BME280;11491;41.942;24.220;2023-02-15T05:05:31;90838.50;;;-6.22;72.93
22649;BME280;11491;41.942;24.220;2023-02-15T05:07:57;90841.34;;;-6.23;72.76
22649;BME280;11491;41.942;24.220;2023-02-15T05:10:24;90841.91;;;-6.21;73.25
22649;BME280;11491;41.942;24.220;2023-02-15T05:12:52;90843.97;;;-6.12;72.39
22649;BME280;11491;41.942;24.220;2023-02-15T05:15:19;90835.84;;;-6.15;72.29
22649;BME280;11491;41.942;24.220;2023-02-15T05:17:46;90842.94;;;-6.22;72.57
22649;BME280;11491;41.942;24.220;2023-02-15T05:20:12;90860.56;;;-6.24;73.28
22649;BME280;11491;41.942;24.220;2023-02-15T05:22:39;90874.19;;;-6.22;72.33
22649;BME280;11491;41.942;24.220;2023-02-15T05:25:08;90869.41;;;-6.44;73.37
22649;BME280;11491;41.942;24.220;2023-02-15T05:27:54;90872.88;;;-6.32;73.99
22649;BME280;11491;41.942;24.220;2023-02-15T05:30:38;90882.56;;;-6.20;73.86
22649;BME280;11491;41.942;24.220;2023-02-15T05:33:06;90875.75;;;-6.21;74.06
22649;BME280;11491;41.942;24.220;2023-02-15T05:35:33;90892.84;;;-6.44;74.72
22649;BME280;11491;41.942;24.220;2023-02-15T05:38:00;90874.34;;;-6.36;74.30
22649;BME280;11491;41.942;24.220;2023-02-15T05:40:27;90880.69;;;-6.32;74.78
22649;BME280;11491;41.942;24.220;2023-02-15T05:42:55;90879.91;;;-6.32;75.03
22649;BME280;11491;41.942;24.220;2023-02-15T05:45:22;90886.25;;;-6.28;75.03
22649;BME280;11491;41.942;24.220;2023-02-15T05:47:49;90880.25;;;-6.29;74.56
22649;BME280;11491;41.942;24.220;2023-02-15T05:50:16;90893.72;;;-6.50;74.98
22649;BME280;11491;41.942;24.220;2023-02-15T05:52:43;90892.69;;;-6.49;75.89
22649;BME280;11491;41.942;24.220;2023-02-15T05:55:09;90890.38;;;-6.39;75.79
22649;BME280;11491;41.942;24.220;2023-02-15T05:57:36;90892.56;;;-6.36;76.03
22649;BME280;11491;41.942;24.220;2023-02-15T06:00:06;90902.22;;;-6.24;75.63
22649;BME280;11491;41.942;24.220;2023-02-15T06:02:34;90906.13;;;-6.15;74.64
22649;BME280;11491;41.942;24.220;2023-02-15T06:05:01;90903.09;;;-6.12;74.70
22649;BME280;11491;41.942;24.220;2023-02-15T06:07:30;90910.03;;;-6.06;75.02
22649;BME280;11491;41.942;24.220;2023-02-15T06:09:56;90908.25;;;-5.94;74.54
22649;BME280;11491;41.942;24.220;2023-02-15T06:12:23;90905.59;;;-5.75;74.30
22649;BME280;11491;41.942;24.220;2023-02-15T06:14:50;90911.66;;;-5.81;74.23
22649;BME280;11491;41.942;24.220;2023-02-15T06:17:18;90914.59;;;-5.90;74.95
22649;BME280;11491;41.942;24.220;2023-02-15T06:19:47;90915.63;;;-5.91;74.92
22649;BME280;11491;41.942;24.220;2023-02-15T06:22:13;90920.59;;;-5.59;74.24
22649;BME280;11491;41.942;24.220;2023-02-15T06:24:40;90913.25;;;-5.50;73.78
22649;BME280;11491;41.942;24.220;2023-02-15T06:27:08;90927.78;;;-5.43;73.66
22649;BME280;11491;41.942;24.220;2023-02-15T06:29:35;90915.34;;;-5.29;74.13
22649;BME280;11491;41.942;24.220;2023-02-15T06:32:02;90912.31;;;-5.14;74.05
22649;BME280;11491;41.942;24.220;2023-02-15T06:34:31;90920.25;;;-5.09;74.35
22649;BME280;11491;41.942;24.220;2023-02-15T06:36:57;90922.41;;;-5.06;74.47
22649;BME280;11491;41.942;24.220;2023-02-15T06:39:24;90912.34;;;-4.90;75.17
22649;BME280;11491;41.942;24.220;2023-02-15T06:41:51;90920.28;;;-4.85;74.49
22649;BME280;11491;41.942;24.220;2023-02-15T06:44:18;90912.00;;;-4.59;73.49
22649;BME280;11491;41.942;24.220;2023-02-15T06:46:44;90917.06;;;-4.40;73.75
22649;BME280;11491;41.942;24.220;2023-02-15T06:49:11;90914.78;;;-4.25;73.29
22649;BME280;11491;41.942;24.220;2023-02-15T06:51:39;90907.94;;;-4.02;72.96
22649;BME280;11491;41.942;24.220;2023-02-15T06:54:06;90904.69;;;-3.81;72.18
22649;BME280;11491;41.942;24.220;2023-02-15T06:56:33;90904.41;;;-3.67;72.35
22649;BME280;11491;41.942;24.220;2023-02-15T06:58:59;90900.56;;;-3.48;71.88
22649;BME280;11491;41.942;24.220;2023-02-15T07:01:26;90901.94;;;-3.29;71.88
22649;BME280;11491;41.942;24.220;2023-02-15T07:03:53;90897.38;;;-3.05;71.80
22649;BME280;11491;41.942;24.220;2023-02-15T07:06:20;90897.53;;;-2.77;71.81
22649;BME280;11491;41.942;24.220;2023-02-15T07:08:48;90902.41;;;-2.47;70.95
22649;BME280;11491;41.942;24.220;2023-02-15T07:11:15;90900.81;;;-2.09;69.92
22649;BME280;11491;41.942;24.220;2023-02-15T07:13:59;90898.28;;;-1.82;69.01
22649;BME280;11491;41.942;24.220;2023-02-15T07:16:25;90890.75;;;-1.52;69.54
22649;BME280;11491;41.942;24.220;2023-02-15T07:18:52;90900.19;;;-1.50;69.05
22649;BME280;11491;41.942;24.220;2023-02-15T07:21:19;90901.59;;;-1.16;69.47
22649;BME280;11491;41.942;24.220;2023-02-15T07:23:45;90904.56;;;-0.75;68.21
22649;BME280;11491;41.942;24.220;2023-02-15T07:26:14;90906.72;;;-0.34;67.64
22649;BME280;11491;41.942;24.220;2023-02-15T07:28:41;90898.75;;;-0.02;65.53
22649;BME280;11491;41.942;24.220;2023-02-15T07:31:07;90889.13;;;0.29;64.76
22649;BME280;11491;41.942;24.220;2023-02-15T07:33:35;90889.00;;;0.67;63.90
22649;BME280;11491;41.942;24.220;2023-02-15T07:36:03;90884.84;;;1.01;63.17
22649;BME280;11491;41.942;24.220;2023-02-15T07:38:31;90890.41;;;1.36;62.62
22649;BME280;11491;41.942;24.220;2023-02-15T07:40:58;90858.00;;;1.45;61.54
22649;BME280;11491;41.942;24.220;2023-02-15T07:43:27;90885.88;;;1.98;60.63
22649;BME280;11491;41.942;24.220;2023-02-15T07:45:54;90887.91;;;2.26;59.41
22649;BME280;11491;41.942;24.220;2023-02-15T07:48:21;90889.94;;;2.45;59.35
22649;BME280;11491;41.942;24.220;2023-02-15T07:50:48;90884.03;;;2.68;58.01
22649;BME280;11491;41.942;24.220;2023-02-15T07:53:14;90881.41;;;2.63;57.61
22649;BME280;11491;41.942;24.220;2023-02-15T07:55:41;90885.81;;;2.83;57.66
22649;BME280;11491;41.942;24.220;2023-02-15T07:58:08;90879.00;;;3.16;57.49
22649;BME280;11491;41.942;24.220;2023-02-15T08:00:36;90883.50;;;3.50;57.00
22649;BME280;11491;41.942;24.220;2023-02-15T08:03:23;90879.56;;;3.82;55.54
22649;BME280;11491;41.942;24.220;2023-02-15T08:05:55;90878.78;;;4.10;54.47
22649;BME280;11491;41.942;24.220;2023-02-15T08:08:22;90872.09;;;4.42;53.93
22649;BME280;11491;41.942;24.220;2023-02-15T08:10:59;90884.91;;;4.78;53.22
22649;BME280;11491;41.942;24.220;2023-02-15T08:16:17;90880.97;;;4.03;54.14
22649;BME280;11491;41.942;24.220;2023-02-15T08:18:44;90883.50;;;3.55;54.59
22649;BME280;11491;41.942;24.220;2023-02-15T08:21:11;90886.25;;;3.40;55.73
22649;BME280;11491;41.942;24.220;2023-02-15T08:23:37;90886.28;;;3.35;56.68
22649;BME280;11491;41.942;24.220;2023-02-15T08:26:04;90882.66;;;3.26;56.05
22649;BME280;11491;41.942;24.220;2023-02-15T08:28:31;90881.94;;;3.15;56.63
22649;BME280;11491;41.942;24.220;2023-02-15T08:31:04;90884.97;;;2.93;57.59
22649;BME280;11491;41.942;24.220;2023-02-15T08:33:33;90887.78;;;3.46;55.73
22649;BME280;11491;41.942;24.220;2023-02-15T08:36:03;90888.66;;;3.36;56.09
22649;BME280;11491;41.942;24.220;2023-02-15T08:38:30;90886.28;;;3.69;56.21
22649;BME280;11491;41.942;24.220;2023-02-15T08:40:57;90890.44;;;4.34;54.24
22649;BME280;11491;41.942;24.220;2023-02-15T08:43:23;90886.09;;;4.19;53.35
22649;BME280;11491;41.942;24.220;2023-02-15T08:45:50;90883.66;;;4.46;53.62
22649;BME280;11491;41.942;24.220;2023-02-15T08:48:17;90896.13;;;4.70;52.58
22649;BME280;11491;41.942;24.220;2023-02-15T08:50:45;90890.41;;;4.82;51.70
22649;BME280;11491;41.942;24.220;2023-02-15T08:53:12;90892.66;;;4.69;52.53
22649;BME280;11491;41.942;24.220;2023-02-15T08:55:39;90885.06;;;5.06;50.73
22649;BME280;11491;41.942;24.220;2023-02-15T08:58:06;90872.69;;;5.20;50.43
22649;BME280;11491;41.942;24.220;2023-02-15T09:00:32;90872.13;;;5.94;49.27
22649;BME280;11491;41.942;24.220;2023-02-15T09:02:59;90880.69;;;5.86;48.22
22649;BME280;11491;41.942;24.220;2023-02-15T09:05:26;90879.69;;;5.49;49.23
22649;BME280;11491;41.942;24.220;2023-02-15T09:07:54;90880.19;;;5.51;49.30
22649;BME280;11491;41.942;24.220;2023-02-15T09:10:21;90868.44;;;5.90;48.32
22649;BME280;11491;41.942;24.220;2023-02-15T09:12:47;90874.75;;;6.54;46.23
22649;BME280;11491;41.942;24.220;2023-02-15T09:15:16;90863.91;;;6.51;45.64
22649;BME280;11491;41.942;24.220;2023-02-15T09:17:43;90877.69;;;5.22;48.76
22649;BME280;11491;41.942;24.220;2023-02-15T09:20:10;90875.63;;;5.37;48.23
22649;BME280;11491;41.942;24.220;2023-02-15T09:22:37;90876.69;;;5.36;48.25
22649;BME280;11491;41.942;24.220;2023-02-15T09:25:05;90870.50;;;5.93;46.46
22649;BME280;11491;41.942;24.220;2023-02-15T09:27:32;90873.34;;;6.43;46.15
22649;BME280;11491;41.942;24.220;2023-02-15T09:29:59;90874.50;;;7.20;43.95
22649;BME280;11491;41.942;24.220;2023-02-15T09:32:26;90869.53;;;7.41;43.53
22649;BME280;11491;41.942;24.220;2023-02-15T09:34:52;90862.94;;;7.61;43.49
22649;BME280;11491;41.942;24.220;2023-02-15T09:37:19;90833.94;;;8.67;41.72
22649;BME280;11491;41.942;24.220;2023-02-15T09:39:46;90862.47;;;9.23;39.17
22649;BME280;11491;41.942;24.220;2023-02-15T09:42:44;90861.81;;;8.29;40.77
22649;BME280;11491;41.942;24.220;2023-02-15T09:45:37;90856.91;;;8.85;40.57
22649;BME280;11491;41.942;24.220;2023-02-15T09:48:28;90853.38;;;9.33;38.23
22649;BME280;11491;41.942;24.220;2023-02-15T09:51:06;90871.91;;;9.30;37.76
22649;BME280;11491;41.942;24.220;2023-02-15T09:53:51;90870.63;;;9.18;38.08
22649;BME280;11491;41.942;24.220;2023-02-15T09:56:28;90859.19;;;9.96;37.36
22649;BME280;11491;41.942;24.220;2023-02-15T09:59:08;90852.97;;;10.56;35.83
22649;BME280;11491;41.942;24.220;2023-02-15T10:01:44;90840.47;;;10.31;35.70
22649;BME280;11491;41.942;24.220;2023-02-15T10:04:29;90854.28;;;10.16;35.68
22649;BME280;11491;41.942;24.220;2023-02-15T10:07:10;90845.84;;;9.26;37.04
22649;BME280;11491;41.942;24.220;2023-02-15T10:09:50;90848.13;;;8.93;37.61
22649;BME280;11491;41.942;24.220;2023-02-15T10:12:36;90850.31;;;8.91;36.97
22649;BME280;11491;41.942;24.220;2023-02-15T10:15:23;90843.09;;;8.92;37.63
22649;BME280;11491;41.942;24.220;2023-02-15T10:18:10;90838.66;;;9.79;35.92
22649;BME280;11491;41.942;24.220;2023-02-15T10:20:48;90827.88;;;10.40;35.14
22649;BME280;11491;41.942;24.220;2023-02-15T10:23:49;90823.97;;;10.76;34.74
22649;BME280;11491;41.942;24.220;2023-02-15T10:26:21;90829.63;;;10.36;34.52
22649;BME280;11491;41.942;24.220;2023-02-15T10:28:50;90836.44;;;11.02;34.60
22649;BME280;11491;41.942;24.220;2023-02-15T10:31:27;90829.41;;;10.88;34.35
22649;BME280;11491;41.942;24.220;2023-02-15T10:34:14;90824.06;;;11.39;33.63
22649;BME280;11491;41.942;24.220;2023-02-15T10:36:56;90824.13;;;11.72;33.22
22649;BME280;11491;41.942;24.220;2023-02-15T10:39:36;90818.72;;;11.18;33.57
22649;BME280;11491;41.942;24.220;2023-02-15T10:42:11;90823.19;;;11.56;35.03
22649;BME280;11491;41.942;24.220;2023-02-15T10:44:54;90825.72;;;12.73;33.03
22649;BME280;11491;41.942;24.220;2023-02-15T10:47:39;90820.53;;;12.56;31.56
22649;BME280;11491;41.942;24.220;2023-02-15T10:50:24;90809.38;;;11.66;32.30
22649;BME280;11491;41.942;24.220;2023-02-15T10:53:15;90813.25;;;12.44;31.62
22649;BME280;11491;41.942;24.220;2023-02-15T10:55:53;90811.44;;;13.30;30.44
22649;BME280;11491;41.942;24.220;2023-02-15T10:58:31;90812.41;;;13.13;31.37
22649;BME280;11491;41.942;24.220;2023-02-15T11:01:10;90808.16;;;13.49;30.49
22649;BME280;11491;41.942;24.220;2023-02-15T11:04:03;90810.38;;;14.00;29.65
22649;BME280;11491;41.942;24.220;2023-02-15T11:06:35;90805.44;;;14.74;28.93
22649;BME280;11491;41.942;24.220;2023-02-15T11:09:09;90808.09;;;14.30;28.59
22649;BME280;11491;41.942;24.220;2023-02-15T11:11:39;90809.09;;;14.10;30.01
22649;BME280;11491;41.942;24.220;2023-02-15T11:14:14;90806.34;;;14.22;30.56
22649;BME280;11491;41.942;24.220;2023-02-15T11:16:46;90812.63;;;14.26;30.04
22649;BME280;11491;41.942;24.220;2023-02-15T11:19:20;90794.88;;;14.53;30.24
22649;BME280;11491;41.942;24.220;2023-02-15T11:21:50;90793.34;;;14.24;30.00
22649;BME280;11491;41.942;24.220;2023-02-15T11:24:19;90790.31;;;14.54;29.63
22649;BME280;11491;41.942;24.220;2023-02-15T11:26:49;90797.59;;;14.69;30.04
22649;BME280;11491;41.942;24.220;2023-02-15T11:29:24;90800.09;;;14.18;29.10
22649;BME280;11491;41.942;24.220;2023-02-15T11:31:54;90802.72;;;13.74;29.18
22649;BME280;11491;41.942;24.220;2023-02-15T11:34:31;90796.53;;;12.84;30.71
22649;BME280;11491;41.942;24.220;2023-02-15T11:37:01;90792.84;;;13.01;30.07
22649;BME280;11491;41.942;24.220;2023-02-15T11:39:28;90792.75;;;12.97;30.67
22649;BME280;11491;41.942;24.220;2023-02-15T11:42:00;90786.81;;;12.91;30.02
22649;BME280;11491;41.942;24.220;2023-02-15T11:44:32;90792.38;;;12.37;31.33
22649;BME280;11491;41.942;24.220;2023-02-15T11:47:00;90789.31;;;12.39;30.67
22649;BME280;11491;41.942;24.220;2023-02-15T11:49:31;90788.25;;;12.77;30.11
22649;BME280;11491;41.942;24.220;2023-02-15T11:52:02;90778.94;;;13.48;30.82
22649;BME280;11491;41.942;24.220;2023-02-15T11:54:33;90771.94;;;13.99;28.75
22649;BME280;11491;41.942;24.220;2023-02-15T11:57:10;90766.31;;;14.49;28.73
22649;BME280;11491;41.942;24.220;2023-02-15T11:59:40;90769.50;;;13.94;29.37
22649;BME280;11491;41.942;24.220;2023-02-15T12:02:16;90765.28;;;13.81;29.01
22649;BME280;11491;41.942;24.220;2023-02-15T12:04:48;90772.34;;;14.14;28.91
22649;BME280;11491;41.942;24.220;2023-02-15T12:07:20;90762.31;;;14.42;28.43
22649;BME280;11491;41.942;24.220;2023-02-15T12:09:52;90760.97;;;14.80;28.21
22649;BME280;11491;41.942;24.220;2023-02-15T12:12:24;90762.13;;;15.31;28.86
22649;BME280;11491;41.942;24.220;2023-02-15T12:14:53;90760.31;;;15.89;27.03
22649;BME280;11491;41.942;24.220;2023-02-15T12:17:23;90758.94;;;15.99;26.87
22649;BME280;11491;41.942;24.220;2023-02-15T12:19:52;90764.84;;;15.50;26.29
22649;BME280;11491;41.942;24.220;2023-02-15T12:22:23;90754.38;;;14.62;27.86
22649;BME280;11491;41.942;24.220;2023-02-15T12:24:53;90754.38;;;14.62;29.06
22649;BME280;11491;41.942;24.220;2023-02-15T12:27:23;90752.97;;;13.80;28.14
22649;BME280;11491;41.942;24.220;2023-02-15T12:29:52;90756.84;;;13.67;29.79
22649;BME280;11491;41.942;24.220;2023-02-15T12:32:24;90757.38;;;13.20;28.41
22649;BME280;11491;41.942;24.220;2023-02-15T12:34:55;90755.69;;;13.40;28.97
22649;BME280;11491;41.942;24.220;2023-02-15T12:37:28;90749.97;;;13.82;29.09
22649;BME280;11491;41.942;24.220;2023-02-15T12:39:58;90766.75;;;13.26;28.94
22649;BME280;11491;41.942;24.220;2023-02-15T12:42:27;90739.69;;;13.31;29.01
22649;BME280;11491;41.942;24.220;2023-02-15T12:45:22;90746.91;;;13.83;29.44
22649;BME280;11491;41.942;24.220;2023-02-15T12:48:08;90749.75;;;13.74;29.83
22649;BME280;11491;41.942;24.220;2023-02-15T12:50:38;90748.34;;;14.21;28.14
22649;BME280;11491;41.942;24.220;2023-02-15T12:53:08;90748.72;;;14.51;26.46
22649;BME280;11491;41.942;24.220;2023-02-15T12:55:41;90748.59;;;14.48;26.74
22649;BME280;11491;41.942;24.220;2023-02-15T12:58:17;90746.34;;;14.50;28.01
22649;BME280;11491;41.942;24.220;2023-02-15T13:00:44;90746.47;;;14.69;26.67
22649;BME280;11491;41.942;24.220;2023-02-15T13:03:17;90745.91;;;14.48;26.30
22649;BME280;11491;41.942;24.220;2023-02-15T13:05:46;90752.72;;;14.57;27.14
22649;BME280;11491;41.942;24.220;2023-02-15T13:08:17;90748.81;;;14.86;26.69
22649;BME280;11491;41.942;24.220;2023-02-15T13:10:53;90755.94;;;15.30;26.54
22649;BME280;11491;41.942;24.220;2023-02-15T13:13:24;90746.72;;;15.66;28.19
22649;BME280;11491;41.942;24.220;2023-02-15T13:15:54;90747.28;;;15.56;25.85
22649;BME280;11491;41.942;24.220;2023-02-15T13:18:29;90742.34;;;15.23;29.71
22649;BME280;11491;41.942;24.220;2023-02-15T13:21:00;90747.75;;;15.07;30.53
22649;BME280;11491;41.942;24.220;2023-02-15T13:23:33;90746.03;;;15.34;30.92
22649;BME280;11491;41.942;24.220;2023-02-15T13:26:04;90738.06;;;15.57;29.96